Time;durP1;ratioP1;P1;durP2;ratioP2;P2;SDS_P1;SDS_P2;PMS_P1;PMS_P2;Temp;Humidity;BMP_temperature;BMP_pressure;BME280_temperature;BME280_humidity;BME280_pressure;Samples;Min_cycle;Max_cycle;Signal;HPM_P1;HPM_P2
2023/07/29 00:00:52;;;;;;;9.63;3.22;;;;;;;17.83;100.00;100411.19;5079250;28;20028;-74
2023/07/29 00:03:17;;;;;;;4.20;2.58;;;;;;;17.81;100.00;100405.19;5077529;28;20119;-74
2023/07/29 00:05:43;;;;;;;5.20;3.13;;;;;;;17.87;100.00;100407.94;5077560;28;20036;-73
2023/07/29 00:08:08;;;;;;;5.28;2.83;;;;;;;17.90;100.00;100408.25;5094559;28;20507;-73
2023/07/29 00:10:37;;;;;;;4.18;2.42;;;;;;;17.94;100.00;100405.84;5076281;28;20443;-74
2023/07/29 00:13:04;;;;;;;4.75;2.60;;;;;;;17.97;100.00;100410.78;5092842;28;20016;-74
2023/07/29 00:15:30;;;;;;;3.85;2.72;;;;;;;17.99;100.00;100414.88;5093927;28;20099;-74
2023/07/29 00:17:55;;;;;;;4.22;2.33;;;;;;;18.00;100.00;100404.81;5093167;28;20114;-73
2023/07/29 00:20:21;;;;;;;9.13;2.95;;;;;;;18.04;100.00;100414.91;5076874;28;20507;-74
2023/07/29 00:22:46;;;;;;;5.07;2.60;;;;;;;18.06;100.00;100401.88;5092217;28;20495;-74
2023/07/29 00:25:12;;;;;;;3.55;2.55;;;;;;;18.00;100.00;100399.38;5075601;28;20042;-73
2023/07/29 00:27:37;;;;;;;4.80;2.70;;;;;;;18.02;100.00;100402.66;5092609;28;20055;-74
2023/07/29 00:30:03;;;;;;;5.20;2.92;;;;;;;17.96;100.00;100392.81;5075699;28;20039;-74
2023/07/29 00:32:30;;;;;;;5.07;2.60;;;;;;;17.96;100.00;100398.25;5092786;28;20411;-74
2023/07/29 00:34:55;;;;;;;4.95;2.67;;;;;;;18.00;100.00;100405.63;5093098;28;20020;-73
2023/07/29 00:37:21;;;;;;;3.90;2.92;;;;;;;18.01;100.00;100393.69;5094714;28;20356;-74
2023/07/29 00:39:46;;;;;;;4.78;2.78;;;;;;;18.02;100.00;100391.78;5094195;28;20036;-74
2023/07/29 00:42:11;;;;;;;5.75;2.80;;;;;;;18.04;100.00;100392.31;5059030;28;20047;-74
2023/07/29 00:44:37;;;;;;;4.43;2.83;;;;;;;18.03;100.00;100394.22;5093524;28;20036;-73
2023/07/29 00:47:04;;;;;;;8.75;3.10;;;;;;;17.98;100.00;100393.34;5099978;28;20035;-73
2023/07/29 00:49:31;;;;;;;4.20;2.60;;;;;;;18.02;100.00;100389.06;5093167;28;20052;-74
2023/07/29 00:51:56;;;;;;;3.78;2.60;;;;;;;17.95;100.00;100380.28;5093130;28;20031;-74
2023/07/29 00:54:22;;;;;;;4.38;2.60;;;;;;;18.03;100.00;100405.13;5092107;28;20032;-74
2023/07/29 00:56:47;;;;;;;5.10;2.40;;;;;;;18.02;100.00;100395.31;5096528;28;20078;-74
2023/07/29 00:59:13;;;;;;;5.20;2.75;;;;;;;18.01;100.00;100398.28;5091974;28;20035;-74
2023/07/29 01:01:38;;;;;;;3.97;3.03;;;;;;;17.96;100.00;100390.06;5074814;28;20032;-73
2023/07/29 01:04:04;;;;;;;4.28;2.47;;;;;;;17.95;100.00;100391.16;5091867;28;20023;-74
2023/07/29 01:06:40;;;;;;;4.82;3.22;;;;;;;17.94;100.00;100386.78;5093152;28;20481;-74
2023/07/29 01:09:13;;;;;;;4.25;2.53;;;;;;;17.84;100.00;100373.91;5094059;28;20032;-74
2023/07/29 01:11:55;;;;;;;3.47;2.67;;;;;;;17.89;100.00;100381.31;5093988;28;20085;-73
2023/07/29 01:14:39;;;;;;;5.55;2.80;;;;;;;17.83;100.00;100378.53;5091791;28;20771;-74
2023/07/29 01:17:09;;;;;;;5.15;2.70;;;;;;;17.74;100.00;100363.69;5093537;28;20082;-73
2023/07/29 01:20:01;;;;;;;5.38;2.78;;;;;;;17.77;100.00;100373.28;5098344;28;20024;-74
2023/07/29 01:22:27;;;;;;;5.20;2.63;;;;;;;17.57;100.00;100357.56;5091741;28;20030;-74
2023/07/29 01:24:53;;;;;;;5.03;2.88;;;;;;;17.57;100.00;100360.28;5074840;28;20028;-74
2023/07/29 01:27:18;;;;;;;4.88;2.88;;;;;;;17.45;100.00;100352.28;5074419;28;20032;-74
2023/07/29 01:29:44;;;;;;;4.28;2.90;;;;;;;17.51;100.00;100367.53;5075817;28;20024;-73
2023/07/29 01:32:25;;;;;;;4.65;2.88;;;;;;;17.38;100.00;100352.47;5095473;28;20024;-74
2023/07/29 01:35:00;;;;;;;4.45;3.05;;;;;;;17.42;100.00;100365.53;5091244;28;20059;-74
2023/07/29 01:37:30;;;;;;;4.80;2.78;;;;;;;17.37;100.00;100358.16;5092256;28;20105;-74
2023/07/29 01:39:58;;;;;;;5.05;2.72;;;;;;;17.35;100.00;100366.56;5090980;28;20483;-73
2023/07/29 01:42:24;;;;;;;3.03;2.60;;;;;;;17.18;100.00;100337.81;5092304;28;20059;-73
2023/07/29 01:44:50;;;;;;;5.47;2.75;;;;;;;17.22;100.00;100363.41;5092436;28;20406;-73
2023/07/29 01:47:16;;;;;;;4.78;2.83;;;;;;;17.17;100.00;100358.75;5092167;28;20028;-74
2023/07/29 01:49:41;;;;;;;3.92;2.67;;;;;;;17.14;100.00;100367.41;5091992;28;20056;-74
2023/07/29 01:52:07;;;;;;;4.22;2.40;;;;;;;17.09;100.00;100362.72;5092195;28;20032;-74
2023/07/29 01:54:32;;;;;;;5.25;3.03;;;;;;;17.11;100.00;100354.31;5091505;28;20027;-73
2023/07/29 01:56:57;;;;;;;5.00;2.92;;;;;;;17.12;100.00;100356.78;5073625;28;20119;-74
2023/07/29 01:59:23;;;;;;;5.85;3.00;;;;;;;17.17;100.00;100350.59;5091794;28;20035;-74
2023/07/29 02:01:48;;;;;;;5.20;3.20;;;;;;;16.97;100.00;100325.88;5073657;28;20510;-74
2023/07/29 02:04:14;;;;;;;5.07;3.30;;;;;;;17.12;100.00;100348.63;5091817;28;20077;-73
2023/07/29 02:06:39;;;;;;;6.55;3.40;;;;;;;17.12;100.00;100347.81;5092582;28;20024;-74
2023/07/29 02:09:05;;;;;;;5.15;3.05;;;;;;;17.06;100.00;100335.22;5073609;28;20036;-74
2023/07/29 02:11:30;;;;;;;4.93;3.25;;;;;;;17.10;100.00;100341.81;5073606;28;20028;-74
2023/07/29 02:13:56;;;;;;;4.47;2.67;;;;;;;17.08;100.00;100346.66;5092394;28;20020;-74
2023/07/29 02:16:25;;;;;;;3.60;2.80;;;;;;;17.01;100.00;100327.81;5090590;28;20031;-73
2023/07/29 02:18:50;;;;;;;4.60;3.40;;;;;;;17.03;100.00;100336.56;5076535;28;20297;-74
2023/07/29 02:21:16;;;;;;;4.13;2.80;;;;;;;16.91;100.00;100328.50;5092032;28;20028;-74
2023/07/29 02:23:41;;;;;;;3.58;2.90;;;;;;;16.97;100.00;100340.28;5091708;28;20040;-74
2023/07/29 02:26:07;;;;;;;5.60;3.30;;;;;;;16.89;100.00;100332.59;5091712;28;20492;-74
2023/07/29 02:28:32;;;;;;;8.00;3.70;;;;;;;16.89;100.00;100340.75;5091529;28;20030;-74
2023/07/29 02:31:24;;;;;;;7.25;3.58;;;;;;;16.87;100.00;100335.53;5073288;28;20506;-73
2023/07/29 02:33:51;;;;;;;6.82;3.50;;;;;;;16.72;100.00;100318.19;5091087;28;20059;-73
2023/07/29 02:36:17;;;;;;;8.80;3.47;;;;;;;16.78;100.00;100330.78;5091554;28;20494;-73
2023/07/29 02:38:42;;;;;;;5.07;3.58;;;;;;;16.72;100.00;100335.31;5090114;28;20040;-73
2023/07/29 02:41:09;;;;;;;4.78;3.50;;;;;;;16.72;100.00;100332.59;5090031;28;20190;-73
2023/07/29 02:43:35;;;;;;;7.70;3.83;;;;;;;16.64;100.00;100327.59;5090358;28;20757;-74
2023/07/29 02:46:02;;;;;;;4.38;3.72;;;;;;;16.64;100.00;100319.44;5073353;28;20028;-73
2023/07/29 02:48:28;;;;;;;4.20;3.30;;;;;;;16.60;100.00;100323.75;5091311;28;20115;-74
2023/07/29 02:50:54;;;;;;;4.53;3.47;;;;;;;16.55;100.00;100329.91;5089786;28;20127;-73
2023/07/29 02:53:20;;;;;;;5.05;3.95;;;;;;;16.54;100.00;100332.88;5089689;28;20093;-74
2023/07/29 02:55:45;;;;;;;6.40;3.35;;;;;;;16.49;100.00;100308.34;5089908;28;20365;-73
2023/07/29 02:58:10;;;;;;;7.60;3.85;;;;;;;16.56;100.00;100325.31;5072921;28;20028;-74
2023/07/29 03:00:36;;;;;;;5.18;3.92;;;;;;;16.55;100.00;100318.22;5089788;28;20097;-73
2023/07/29 03:03:01;;;;;;;4.72;4.07;;;;;;;16.42;100.00;100306.66;5073447;28;20032;-74
2023/07/29 03:05:28;;;;;;;4.78;3.80;;;;;;;16.54;100.00;100322.03;5090004;28;20040;-74
2023/07/29 03:07:53;;;;;;;7.15;4.07;;;;;;;16.42;100.00;100303.09;5075590;28;20103;-73
2023/07/29 03:10:18;;;;;;;6.63;3.78;;;;;;;16.56;100.00;100330.75;5093650;28;20020;-73
2023/07/29 03:12:44;;;;;;;5.20;3.95;;;;;;;16.58;100.00;100323.97;5099332;28;20040;-73
2023/07/29 03:15:09;;;;;;;4.72;3.80;;;;;;;16.60;100.00;100315.59;5094304;28;20024;-74
2023/07/29 03:17:35;;;;;;;7.85;3.88;;;;;;;16.56;100.00;100323.41;5093716;28;20032;-73
2023/07/29 03:20:01;;;;;;;5.82;3.83;;;;;;;16.57;100.00;100325.06;5094511;28;20036;-73
2023/07/29 03:22:27;;;;;;;4.80;3.33;;;;;;;16.82;100.00;100321.91;5094760;28;20032;-74
2023/07/29 03:24:52;;;;;;;6.28;3.90;;;;;;;16.98;100.00;100317.47;5094088;28;20470;-74
2023/07/29 03:27:18;;;;;;;4.85;3.97;;;;;;;17.14;100.00;100315.75;5094906;28;20024;-73
2023/07/29 03:29:43;;;;;;;10.00;4.50;;;;;;;17.36;100.00;100310.28;5094743;28;20036;-73
2023/07/29 03:32:08;;;;;;;8.82;4.15;;;;;;;17.46;100.00;100301.41;5093563;28;20024;-74
2023/07/29 03:34:36;;;;;;;5.18;3.85;;;;;;;17.32;100.00;100290.13;5093364;28;20214;-73
2023/07/29 03:37:01;;;;;;;5.25;4.30;;;;;;;17.23;100.00;100303.34;5076782;28;20031;-73
2023/07/29 03:39:27;;;;;;;6.72;4.10;;;;;;;17.22;100.00;100301.72;5094539;28;20487;-73
2023/07/29 03:41:52;;;;;;;5.95;4.18;;;;;;;17.46;100.00;100298.69;5076385;28;20101;-73
2023/07/29 03:44:18;;;;;;;7.05;4.13;;;;;;;17.31;100.00;100291.19;5093108;28;20140;-74
2023/07/29 03:46:44;;;;;;;5.25;3.78;;;;;;;17.10;100.00;100287.44;5092997;28;20433;-74
2023/07/29 03:49:10;;;;;;;10.63;4.05;;;;;;;17.10;100.00;100293.69;5093164;28;20087;-74
2023/07/29 03:51:35;;;;;;;7.45;3.80;;;;;;;17.12;100.00;100302.41;5094238;28;20028;-73
2023/07/29 03:54:01;;;;;;;8.43;3.92;;;;;;;17.18;100.00;100294.31;5093262;28;20026;-73
2023/07/29 03:56:26;;;;;;;7.22;4.10;;;;;;;17.25;100.00;100300.34;5076010;28;20059;-74
2023/07/29 03:58:53;;;;;;;8.68;3.83;;;;;;;17.23;100.00;100297.09;5076206;28;20027;-74
2023/07/29 04:01:18;;;;;;;7.20;4.22;;;;;;;17.20;100.00;100303.84;5076245;28;20027;-74
2023/07/29 04:03:46;;;;;;;6.13;4.00;;;;;;;17.01;100.00;100272.66;5076136;28;20024;-74
2023/07/29 04:06:11;;;;;;;4.80;3.95;;;;;;;17.21;100.00;100300.06;5076101;28;20032;-73
2023/07/29 04:08:37;;;;;;;5.90;4.18;;;;;;;17.27;100.00;100293.59;5093282;28;20066;-74
2023/07/29 04:11:03;;;;;;;5.75;4.18;;;;;;;17.33;100.00;100278.16;5095434;28;20028;-74
2023/07/29 04:13:28;;;;;;;5.65;3.95;;;;;;;17.12;100.00;100247.22;5094024;28;20119;-73
2023/07/29 04:15:53;;;;;;;5.63;3.45;;;;;;;17.38;100.00;100287.19;5092721;28;20126;-73
2023/07/29 04:18:19;;;;;;;5.25;3.60;;;;;;;17.36;100.00;100283.91;5075654;28;20551;-73
2023/07/29 04:20:44;;;;;;;4.80;3.58;;;;;;;17.43;100.00;100288.31;5095138;28;20041;-73
2023/07/29 04:23:09;;;;;;;6.75;4.15;;;;;;;17.47;100.00;100292.16;5060037;28;20043;-73
2023/07/29 04:25:35;;;;;;;6.88;3.90;;;;;;;17.51;100.00;100285.94;5093757;28;20093;-74
2023/07/29 04:28:03;;;;;;;6.13;4.00;;;;;;;17.33;100.00;100234.66;5093767;28;20032;-73
2023/07/29 04:30:28;;;;;;;6.57;4.10;;;;;;;17.84;100.00;100286.81;5092613;28;20036;-74
2023/07/29 04:32:54;;;;;;;6.40;3.30;;;;;;;18.15;100.00;100290.59;5094234;28;20078;-74
2023/07/29 04:35:19;;;;;;;5.28;3.22;;;;;;;18.64;100.00;100284.03;5092187;28;20618;-74
2023/07/29 04:37:47;;;;;;;6.80;3.45;;;;;;;18.85;100.00;100294.00;5092157;28;20063;-73
2023/07/29 04:40:13;;;;;;;6.57;3.58;;;;;;;18.59;100.00;100287.56;5075930;28;20474;-73
2023/07/29 04:42:38;;;;;;;5.85;3.42;;;;;;;18.43;100.00;100283.13;5092032;28;20035;-74
2023/07/29 04:45:04;;;;;;;6.22;3.15;;;;;;;18.39;100.00;100290.19;5092418;28;20036;-73
2023/07/29 04:47:30;;;;;;;4.55;3.10;;;;;;;18.42;100.00;100281.50;5092825;28;20044;-73
2023/07/29 04:49:55;;;;;;;9.20;3.42;;;;;;;18.36;100.00;100288.00;5092236;28;20414;-74
2023/07/29 04:52:21;;;;;;;3.95;3.10;;;;;;;18.40;100.00;100286.38;5074982;28;20112;-74
2023/07/29 04:54:47;;;;;;;5.38;3.45;;;;;;;18.43;100.00;100286.66;5093715;28;20028;-73
2023/07/29 04:57:12;;;;;;;6.80;3.22;;;;;;;18.51;100.00;100290.81;5093206;28;20567;-74
2023/07/29 04:59:38;;;;;;;6.00;3.25;;;;;;;18.68;100.00;100296.91;5075093;28;20043;-73
2023/07/29 05:02:03;;;;;;;3.45;3.10;;;;;;;18.74;100.00;100290.41;5091434;28;20035;-74
2023/07/29 05:04:29;;;;;;;3.60;2.83;;;;;;;18.96;100.00;100298.41;5092863;28;20035;-74
2023/07/29 05:06:54;;;;;;;5.30;3.22;;;;;;;18.85;100.00;100294.00;5075040;28;20103;-73
2023/07/29 05:09:22;;;;;;;4.57;3.13;;;;;;;18.79;100.00;100297.78;5059842;28;20406;-73
2023/07/29 05:11:48;;;;;;;3.38;2.85;;;;;;;18.59;100.00;100273.13;5074913;28;20079;-73
2023/07/29 05:14:15;;;;;;;4.30;2.92;;;;;;;18.72;100.00;100292.56;5091705;28;20024;-73
2023/07/29 05:16:41;;;;;;;4.57;3.30;;;;;;;18.72;100.00;100292.56;5092661;28;20087;-73
2023/07/29 05:19:06;;;;;;;4.85;3.42;;;;;;;18.75;100.00;100286.59;5091784;28;20032;-74
2023/07/29 05:21:31;;;;;;;5.05;3.15;;;;;;;18.89;100.00;100283.38;5074438;28;20040;-73
2023/07/29 05:23:57;;;;;;;5.15;3.00;;;;;;;19.01;100.00;100290.25;5091317;28;20036;-73
2023/07/29 05:26:23;;;;;;;4.10;3.30;;;;;;;19.07;100.00;100288.34;5074408;28;20051;-73
2023/07/29 05:28:48;;;;;;;6.50;3.30;;;;;;;19.18;100.00;100294.66;5092539;28;20073;-73
2023/07/29 05:31:13;;;;;;;5.90;3.53;;;;;;;19.14;100.00;100293.53;5091912;28;20115;-74
2023/07/29 05:33:39;;;;;;;5.32;3.22;;;;;;;19.18;100.00;100290.03;5091241;28;20046;-74
2023/07/29 05:36:05;;;;;;;4.60;3.05;;;;;;;19.27;100.00;100286.75;5091191;28;20398;-74
2023/07/29 05:38:30;;;;;;;5.28;3.05;;;;;;;19.37;100.00;100282.16;5091022;28;20032;-74
2023/07/29 05:40:56;;;;;;;4.85;3.03;;;;;;;19.32;100.00;100260.31;5092013;28;20023;-73
2023/07/29 05:43:21;;;;;;;6.85;2.80;;;;;;;19.43;100.00;100280.25;5090969;28;20024;-73
2023/07/29 05:45:47;;;;;;;3.70;2.70;;;;;;;19.42;100.00;100278.59;5091107;28;20032;-73
2023/07/29 05:48:12;;;;;;;5.00;2.97;;;;;;;19.37;100.00;100275.84;5074120;28;20032;-74
2023/07/29 05:50:38;;;;;;;5.40;2.75;;;;;;;19.57;100.00;100278.63;5091591;28;20060;-73
2023/07/29 05:53:03;;;;;;;4.82;2.88;;;;;;;19.69;100.00;100278.38;5057532;28;20028;-73
2023/07/29 05:55:29;;;;;;;3.92;2.78;;;;;;;19.61;100.00;100265.25;5092133;28;20024;-74
2023/07/29 05:57:54;;;;;;;4.20;2.50;;;;;;;19.63;100.00;100272.09;5090773;28;20386;-73
2023/07/29 06:00:20;;;;;;;4.25;2.45;;;;;;;19.59;100.00;100265.53;5092184;28;20521;-73
2023/07/29 06:02:46;;;;;;;5.15;2.58;;;;;;;19.59;100.00;100270.16;5090243;28;20123;-74
2023/07/29 06:05:11;;;;;;;4.10;2.35;;;;;;;19.60;100.00;100241.78;5094771;28;20035;-72
2023/07/29 06:07:37;;;;;;;5.68;2.33;;;;;;;19.78;100.00;100259.56;5074498;28;20035;-74
2023/07/29 06:10:03;;;;;;;3.72;2.45;;;;;;;20.11;100.00;100263.63;5075634;28;20028;-73
2023/07/29 06:12:28;;;;;;;3.53;2.30;;;;;;;20.18;100.00;100262.25;5093010;28;20489;-73
2023/07/29 06:14:54;;;;;;;5.65;2.60;;;;;;;20.17;100.00;100266.06;5073748;28;20388;-73
2023/07/29 06:17:19;;;;;;;3.15;2.38;;;;;;;20.16;99.33;100256.25;5073600;28;20081;-73
2023/07/29 06:19:45;;;;;;;6.03;2.40;;;;;;;20.19;99.16;100233.81;5090552;28;20032;-74
2023/07/29 06:22:10;;;;;;;2.53;2.05;;;;;;;20.44;98.12;100264.09;5090301;28;20023;-73
2023/07/29 06:24:36;;;;;;;3.15;2.20;;;;;;;20.50;97.79;100263.81;5090480;28;20030;-74
2023/07/29 06:27:01;;;;;;;4.00;2.40;;;;;;;20.56;97.34;100257.25;5090353;28;20134;-74
2023/07/29 06:29:27;;;;;;;4.95;2.28;;;;;;;20.55;97.33;100252.06;5073426;28;20446;-74
2023/07/29 06:31:52;;;;;;;3.72;2.35;;;;;;;20.51;97.00;100254.53;5090231;28;20039;-73
2023/07/29 06:34:18;;;;;;;2.97;2.13;;;;;;;20.64;96.36;100248.47;5090547;28;20371;-73
2023/07/29 06:36:44;;;;;;;4.10;2.58;;;;;;;20.83;95.12;100253.31;5090129;28;20024;-73
2023/07/29 06:39:09;;;;;;;4.05;3.00;;;;;;;20.91;94.55;100252.72;5090394;28;20028;-73
2023/07/29 06:41:35;;;;;;;3.35;2.55;;;;;;;20.84;94.30;100233.88;5089748;28;20498;-73
2023/07/29 06:44:00;;;;;;;3.80;2.22;;;;;;;20.89;93.97;100252.19;5073203;28;20056;-73
2023/07/29 06:46:26;;;;;;;3.08;2.33;;;;;;;21.08;93.44;100241.41;5089781;28;20398;-73
2023/07/29 06:48:51;;;;;;;5.00;2.13;;;;;;;21.20;92.49;100250.09;5056593;28;20487;-73
2023/07/29 06:51:16;;;;;;;2.95;2.25;;;;;;;21.29;92.58;100250.31;5090197;28;20040;-73
2023/07/29 06:53:42;;;;;;;3.28;1.98;;;;;;;21.43;92.10;100240.41;5090027;28;20040;-74
2023/07/29 06:56:07;;;;;;;3.95;2.38;;;;;;;21.50;91.17;100234.59;5073264;28;20032;-73
2023/07/29 06:58:33;;;;;;;3.50;2.10;;;;;;;21.54;91.01;100238.41;5073017;28;20036;-73
2023/07/29 07:00:58;;;;;;;4.07;2.33;;;;;;;21.66;90.68;100249.00;5091447;28;20503;-73
2023/07/29 07:03:24;;;;;;;5.18;2.22;;;;;;;21.65;90.54;100248.16;5091940;28;20085;-74
2023/07/29 07:05:50;;;;;;;3.28;2.20;;;;;;;21.71;89.94;100238.78;5091241;28;20516;-74
2023/07/29 07:08:15;;;;;;;3.35;2.22;;;;;;;21.85;89.73;100244.41;5092762;28;20036;-73
2023/07/29 07:10:41;;;;;;;3.58;2.42;;;;;;;21.93;89.91;100235.59;5074004;28;20098;-74
2023/07/29 07:13:06;;;;;;;3.05;2.33;;;;;;;22.16;88.73;100244.16;5089980;28;20020;-73
2023/07/29 07:15:32;;;;;;;5.63;2.40;;;;;;;22.18;88.72;100230.97;5073060;28;20492;-73
2023/07/29 07:17:57;;;;;;;3.78;2.15;;;;;;;22.27;88.83;100240.19;5091363;28;20028;-73
2023/07/29 07:20:22;;;;;;;4.22;2.30;;;;;;;22.42;88.18;100242.78;5091129;28;20390;-73
2023/07/29 07:22:48;;;;;;;4.38;2.30;;;;;;;22.43;87.54;100233.44;5089673;28;20065;-74
2023/07/29 07:25:13;;;;;;;3.80;2.30;;;;;;;22.51;87.30;100231.97;5091333;28;20063;-74
2023/07/29 07:27:39;;;;;;;4.82;2.35;;;;;;;22.56;87.23;100226.44;5090886;28;20028;-74
2023/07/29 07:30:05;;;;;;;3.85;2.38;;;;;;;22.55;87.04;100229.47;5089630;28;20478;-74
2023/07/29 07:32:30;;;;;;;4.20;2.40;;;;;;;22.61;86.50;100225.53;5089625;28;20024;-74
2023/07/29 07:34:55;;;;;;;3.83;2.40;;;;;;;22.69;86.26;100224.91;5072525;28;20028;-74
2023/07/29 07:37:21;;;;;;;4.47;2.38;;;;;;;22.67;86.27;100211.47;5072711;28;20391;-73
2023/07/29 07:39:46;;;;;;;5.30;1.98;;;;;;;22.66;86.14;100228.25;5073010;28;20116;-74
2023/07/29 07:42:12;;;;;;;6.65;2.60;;;;;;;22.62;86.55;100228.00;5089334;28;20046;-74
2023/07/29 07:44:37;;;;;;;4.75;2.13;;;;;;;22.64;86.71;100225.78;5090951;28;20111;-73
2023/07/29 07:47:03;;;;;;;3.25;2.28;;;;;;;22.71;86.15;100219.94;5089590;28;20035;-74
2023/07/29 07:49:28;;;;;;;2.78;2.10;;;;;;;22.70;86.08;100212.81;5072770;28;20044;-73
2023/07/29 07:51:54;;;;;;;3.60;2.10;;;;;;;22.66;86.13;100223.56;5089597;28;20016;-74
2023/07/29 07:54:19;;;;;;;4.03;2.25;;;;;;;22.55;86.24;100208.38;5075507;28;20024;-74
2023/07/29 07:56:45;;;;;;;8.75;3.65;;;;;;;22.54;88.24;100214.13;5059550;28;20032;-74
2023/07/29 07:59:11;;;;;;;5.38;2.88;;;;;;;22.23;90.64;100206.28;5095956;28;20432;-74
2023/07/29 08:01:38;;;;;;;4.93;2.70;;;;;;;22.21;92.18;100213.97;5095783;28;20476;-74
2023/07/29 08:04:04;;;;;;;3.50;2.75;;;;;;;21.81;93.93;100185.84;5093544;28;20055;-74
2023/07/29 08:06:30;;;;;;;5.85;2.88;;;;;;;21.81;94.87;100215.97;5092717;28;20028;-74
2023/07/29 08:08:56;;;;;;;4.80;2.95;;;;;;;21.76;95.49;100210.56;5094225;28;20093;-73
2023/07/29 08:11:21;;;;;;;5.68;3.05;;;;;;;21.72;96.62;100209.47;5093447;28;20032;-74
2023/07/29 08:13:46;;;;;;;6.93;3.20;;;;;;;21.84;96.53;100200.91;5094199;28;20034;-74
2023/07/29 08:16:12;;;;;;;6.78;3.15;;;;;;;22.01;96.67;100184.81;5093699;28;20243;-74
2023/07/29 08:18:37;;;;;;;8.18;3.35;;;;;;;22.37;96.65;100198.16;5096175;28;20024;-74
2023/07/29 08:21:03;;;;;;;4.30;3.30;;;;;;;22.72;96.34;100196.91;5093794;28;20138;-74
2023/07/29 08:23:32;;;;;;;4.82;2.92;;;;;;;22.84;96.58;100204.69;5092698;28;20384;-74
2023/07/29 08:26:01;;;;;;;5.78;2.83;;;;;;;23.01;96.21;100190.47;5092549;28;20055;-74
2023/07/29 08:28:28;;;;;;;5.63;2.72;;;;;;;23.19;96.31;100195.97;5075790;28;20028;-74
2023/07/29 08:30:53;;;;;;;5.05;2.60;;;;;;;23.40;95.90;100198.38;5093656;28;20050;-74
2023/07/29 08:33:19;;;;;;;6.82;3.05;;;;;;;23.44;95.04;100193.91;5058751;28;20541;-74
2023/07/29 08:35:44;;;;;;;6.30;2.92;;;;;;;23.49;94.73;100193.03;5075828;28;20530;-74
2023/07/29 08:38:10;;;;;;;4.28;2.65;;;;;;;23.49;94.20;100187.53;5075672;28;20390;-74
2023/07/29 08:40:41;;;;;;;4.50;2.60;;;;;;;23.43;94.57;100189.53;5091958;28;20123;-74
2023/07/29 08:43:09;;;;;;;4.45;2.70;;;;;;;23.25;94.26;100188.47;5092261;28;20653;-74
2023/07/29 08:45:39;;;;;;;4.25;2.50;;;;;;;23.27;93.73;100201.88;5092218;28;20221;-74
2023/07/29 08:48:08;;;;;;;3.78;2.40;;;;;;;23.32;93.13;100193.59;5093919;28;20085;-74
2023/07/29 08:50:36;;;;;;;4.70;2.50;;;;;;;23.17;93.40;100189.13;5093523;28;20047;-74
2023/07/29 08:53:03;;;;;;;5.82;2.67;;;;;;;23.21;92.92;100207.47;5092005;28;20026;-74
2023/07/29 08:55:30;;;;;;;5.68;2.63;;;;;;;23.27;92.80;100199.94;5089918;28;20025;-74
2023/07/29 08:57:56;;;;;;;6.20;2.95;;;;;;;23.14;92.66;100192.47;5096333;28;20495;-74
2023/07/29 09:00:22;;;;;;;5.00;3.05;;;;;;;23.16;92.56;100206.72;5092192;28;20028;-74
2023/07/29 09:02:47;;;;;;;4.13;2.47;;;;;;;23.37;92.28;100205.28;5092952;28;20403;-74
2023/07/29 09:05:13;;;;;;;5.13;2.90;;;;;;;23.54;91.53;100203.91;5092062;28;20475;-74
2023/07/29 09:07:40;;;;;;;4.78;2.22;;;;;;;23.32;91.79;100153.22;5091690;28;20035;-74
2023/07/29 09:10:09;;;;;;;4.30;2.70;;;;;;;23.55;92.16;100202.81;5092012;28;20059;-74
2023/07/29 09:12:34;;;;;;;3.72;2.40;;;;;;;23.62;91.01;100192.25;5092014;28;20083;-74
2023/07/29 09:15:00;;;;;;;4.75;2.58;;;;;;;23.70;91.21;100199.00;5109119;28;20044;-74
2023/07/29 09:17:25;;;;;;;5.93;2.40;;;;;;;23.47;90.99;100181.50;5107439;28;20441;-74
2023/07/29 09:19:51;;;;;;;5.95;2.78;;;;;;;23.42;91.11;100194.22;5109133;28;20039;-74
2023/07/29 09:22:20;;;;;;;4.35;2.75;;;;;;;23.20;90.88;100152.84;5091592;28;20034;-73
2023/07/29 09:24:47;;;;;;;6.50;2.42;;;;;;;23.45;90.94;100192.81;5092683;28;20495;-74
2023/07/29 09:27:26;;;;;;;5.45;2.45;;;;;;;23.70;90.59;100202.56;5091320;28;20077;-74
2023/07/29 09:29:52;;;;;;;4.50;2.45;;;;;;;23.60;90.45;100183.50;5092757;28;20023;-74
2023/07/29 09:32:21;;;;;;;6.38;2.65;;;;;;;23.85;89.93;100205.06;5092952;28;20032;-74
2023/07/29 09:34:47;;;;;;;6.85;2.40;;;;;;;23.87;89.63;100202.00;5091684;28;20038;-74
2023/07/29 09:37:32;;;;;;;6.07;2.45;;;;;;;24.05;88.95;100195.63;5094559;28;20031;-74
2023/07/29 09:39:57;;;;;;;5.75;2.42;;;;;;;24.20;88.40;100193.69;5085335;28;20036;-74
2023/07/29 09:42:23;;;;;;;4.28;2.30;;;;;;;24.35;88.26;100190.63;5074273;28;20046;-73
2023/07/29 09:44:50;;;;;;;5.20;2.30;;;;;;;24.52;87.73;100190.84;5071991;28;20028;-74
2023/07/29 09:47:23;;;;;;;6.28;2.55;;;;;;;24.57;87.17;100199.00;5085774;28;20036;-74
2023/07/29 09:49:49;;;;;;;6.15;2.70;;;;;;;24.72;86.14;100197.84;5068763;28;20052;-73
2023/07/29 09:52:17;;;;;;;5.72;2.58;;;;;;;24.79;86.07;100205.69;5085913;28;20040;-74
2023/07/29 09:54:44;;;;;;;7.22;3.10;;;;;;;24.77;85.81;100196.94;5069202;28;20021;-74
2023/07/29 09:57:19;;;;;;;4.80;2.38;;;;;;;24.93;84.95;100206.47;5070950;28;20053;-74
2023/07/29 10:00:06;;;;;;;5.75;2.70;;;;;;;25.13;84.59;100205.22;5071429;28;20039;-73
2023/07/29 10:02:31;;;;;;;5.85;3.10;;;;;;;25.04;84.86;100209.81;5071779;28;20025;-74
2023/07/29 10:04:59;;;;;;;5.28;2.45;;;;;;;24.88;85.29;100195.59;5071407;28;20032;-74
2023/07/29 10:07:25;;;;;;;6.65;2.63;;;;;;;24.96;84.23;100194.03;5070408;28;20035;-74
2023/07/29 10:09:52;;;;;;;7.85;3.00;;;;;;;24.93;84.45;100200.16;5070963;28;20025;-74
2023/07/29 10:12:19;;;;;;;4.78;2.72;;;;;;;24.94;84.02;100185.28;5070523;28;20563;-74
2023/07/29 10:14:47;;;;;;;5.97;2.40;;;;;;;25.18;83.96;100185.81;5071973;28;20024;-74
2023/07/29 10:17:15;;;;;;;8.60;2.80;;;;;;;25.34;83.00;100174.44;5071247;28;20036;-74
2023/07/29 10:19:42;;;;;;;5.95;3.00;;;;;;;25.15;83.13;100169.94;5072016;28;20048;-74
2023/07/29 10:22:09;;;;;;;7.35;3.17;;;;;;;25.26;84.26;100196.09;5071528;28;20433;-74
2023/07/29 10:24:41;;;;;;;6.70;2.53;;;;;;;25.22;84.03;100189.56;5070485;28;20032;-74
2023/07/29 10:27:08;;;;;;;7.22;3.03;;;;;;;25.17;84.58;100192.47;5071817;28;20513;-74
2023/07/29 10:29:38;;;;;;;7.57;3.42;;;;;;;24.99;84.71;100165.88;5074852;28;20039;-73
2023/07/29 10:32:05;;;;;;;8.07;3.78;;;;;;;24.97;84.80;100179.97;5074908;28;20032;-74
2023/07/29 10:34:33;;;;;;;6.82;3.50;;;;;;;25.13;84.49;100196.13;5073779;28;20562;-73
2023/07/29 10:36:59;;;;;;;8.82;2.97;;;;;;;25.09;84.31;100187.66;5073422;28;20035;-74
2023/07/29 10:39:25;;;;;;;7.22;3.50;;;;;;;25.03;85.21;100195.25;5055871;28;20025;-73
2023/07/29 10:42:02;;;;;;;6.18;3.35;;;;;;;25.45;83.95;100195.91;5074973;28;20096;-74
2023/07/29 10:44:39;;;;;;;8.40;3.22;;;;;;;25.58;83.12;100177.69;5073390;28;20025;-74
2023/07/29 10:47:14;;;;;;;6.72;3.92;;;;;;;25.92;81.22;100187.28;5074137;28;20043;-74
2023/07/29 10:49:41;;;;;;;6.38;4.10;;;;;;;26.06;79.79;100187.19;5054360;28;20049;-75
2023/07/29 10:52:06;;;;;;;6.28;4.00;;;;;;;26.14;78.05;100190.00;5070872;28;20036;-74
2023/07/29 10:54:45;;;;;;;5.90;3.85;;;;;;;26.02;77.59;100185.06;5070503;28;20023;-74
2023/07/29 10:57:36;;;;;;;5.93;4.03;;;;;;;26.19;77.11;100184.34;5072157;28;20498;-75
2023/07/29 11:00:03;;;;;;;5.85;3.45;;;;;;;26.23;77.20;100187.28;5072122;28;20083;-74
2023/07/29 11:02:35;;;;;;;7.88;3.38;;;;;;;26.24;74.84;100189.69;5073980;28;20032;-75
2023/07/29 11:05:06;;;;;;;5.40;3.50;;;;;;;26.47;72.93;100195.97;5079818;28;20052;-74
2023/07/29 11:07:43;;;;;;;4.00;3.00;;;;;;;26.31;72.19;100189.25;5070916;28;20063;-75
2023/07/29 11:10:09;;;;;;;5.85;3.28;;;;;;;26.13;71.56;100202.16;5070761;28;20094;-74
2023/07/29 11:12:38;;;;;;;3.97;3.00;;;;;;;26.24;71.71;100188.91;5054204;28;20491;-75
2023/07/29 11:15:10;;;;;;;6.20;3.15;;;;;;;26.32;71.97;100195.56;5069787;28;20058;-75
2023/07/29 11:17:36;;;;;;;4.70;3.00;;;;;;;26.04;73.17;100179.25;5083099;28;20066;-74
2023/07/29 11:20:03;;;;;;;3.55;2.80;;;;;;;26.20;73.13;100198.94;5091567;28;20114;-74